Time;durP1;ratioP1;P1;durP2;ratioP2;P2;SDS_P1;SDS_P2;PMS_P1;PMS_P2;Temp;Humidity;BMP_temperature;BMP_pressure;BME280_temperature;BME280_humidity;BME280_pressure;Samples;Min_cycle;Max_cycle;Signal;HPM_P1;HPM_P2
2022/06/07 00:00:49;;;;;;;13.30;7.63;;;;;;;;;;2105659;28;20048;-46
2022/06/07 00:01:50;;;;;;;14.35;7.30;;;;;;;;;;2105545;28;20124;-45
2022/06/07 00:02:52;;;;;;;14.95;6.80;;;;;;;;;;2105814;28;20044;-41
2022/06/07 00:03:54;;;;;;;13.57;6.88;;;;;;;;;;2105440;28;20488;-41
2022/06/07 00:04:55;;;;;;;18.00;7.32;;;;;;;;;;2105603;28;20052;-41
2022/06/07 00:05:56;;;;;;;12.98;6.63;;;;;;;;;;2105437;28;20127;-41
2022/06/07 00:06:57;;;;;;;14.27;6.80;;;;;;;;;;2105624;28;20127;-42
2022/06/07 00:07:58;;;;;;;14.85;7.22;;;;;;;;;;2105697;28;20127;-41
2022/06/07 00:08:59;;;;;;;14.48;6.30;;;;;;;;;;2105598;28;20131;-41
2022/06/07 00:10:01;;;;;;;13.37;6.77;;;;;;;;;;2105464;28;20051;-42
2022/06/07 00:11:02;;;;;;;14.15;6.88;;;;;;;;;;2104061;28;20560;-41
2022/06/07 00:12:04;;;;;;;13.30;7.35;;;;;;;;;;2097205;28;20483;-43
2022/06/07 00:13:05;;;;;;;13.85;6.72;;;;;;;;;;2097088;28;20174;-41
2022/06/07 00:14:06;;;;;;;16.63;6.93;;;;;;;;;;2097166;28;20051;-41
2022/06/07 00:15:08;;;;;;;13.10;7.00;;;;;;;;;;2097192;28;20127;-42
2022/06/07 00:16:10;;;;;;;11.57;6.35;;;;;;;;;;2097224;28;20052;-41
2022/06/07 00:17:11;;;;;;;;;;;;;;;;;;2097596;28;20181;-41
2022/06/07 00:18:13;;;;;;;14.25;7.07;;;;;;;;;;2097223;28;19970;-42
2022/06/07 00:19:15;;;;;;;13.10;6.63;;;;;;;;;;2103800;28;20048;-42
2022/06/07 00:20:16;;;;;;;14.80;7.32;;;;;;;;;;2105580;28;20040;-42
2022/06/07 00:21:17;;;;;;;17.55;7.82;;;;;;;;;;2105412;28;20055;-42
2022/06/07 00:22:18;;;;;;;14.27;7.23;;;;;;;;;;2105617;28;20068;-42
2022/06/07 00:23:19;;;;;;;13.27;7.15;;;;;;;;;;2105415;28;20146;-42
2022/06/07 00:24:20;;;;;;;15.63;7.25;;;;;;;;;;2105295;28;20135;-42
2022/06/07 00:25:22;;;;;;;16.13;7.03;;;;;;;;;;2105620;28;20048;-42
2022/06/07 00:26:24;;;;;;;13.60;6.45;;;;;;;;;;2105567;28;20471;-42
2022/06/07 00:27:25;;;;;;;23.20;7.60;;;;;;;;;;2105529;28;20465;-45
2022/06/07 00:28:27;;;;;;;16.42;7.05;;;;;;;;;;2105508;28;20155;-45
2022/06/07 00:29:28;;;;;;;;;;;;;;;;;;2106266;28;20044;-42
2022/06/07 00:30:30;;;;;;;16.00;7.82;;;;;;;;;;2106643;28;19969;-42
2022/06/07 00:31:32;;;;;;;16.85;7.93;;;;;;;;;;2106826;28;20076;-42
2022/06/07 00:32:33;;;;;;;;;;;;;;;;;;2107315;28;20047;-42
2022/06/07 00:33:34;;;;;;;15.90;8.45;;;;;;;;;;2106877;28;19951;-41
2022/06/07 00:34:35;;;;;;;16.25;8.15;;;;;;;;;;2107092;28;20147;-42
2022/06/07 00:35:36;;;;;;;15.87;7.53;;;;;;;;;;2106882;28;20036;-42
2022/06/07 00:36:38;;;;;;;16.05;7.43;;;;;;;;;;2106834;28;20131;-42
2022/06/07 00:37:39;;;;;;;15.82;7.85;;;;;;;;;;2107084;28;20103;-45
2022/06/07 00:38:42;;;;;;;16.98;7.93;;;;;;;;;;2106995;28;20048;-44
2022/06/07 00:39:43;;;;;;;17.05;7.55;;;;;;;;;;2106768;28;20399;-44
2022/06/07 00:40:44;;;;;;;16.15;8.38;;;;;;;;;;2106999;28;20131;-45
2022/06/07 00:41:45;;;;;;;13.60;7.30;;;;;;;;;;2106901;28;20055;-45
2022/06/07 00:42:46;;;;;;;14.63;7.65;;;;;;;;;;2106928;28;20048;-45
2022/06/07 00:44:02;;;;;;;14.83;7.83;;;;;;;;;;2106842;28;20481;-44
2022/06/07 00:45:04;;;;;;;16.25;7.20;;;;;;;;;;2106070;28;20421;-45
2022/06/07 00:46:06;;;;;;;13.77;7.60;;;;;;;;;;2106754;28;20048;-45
2022/06/07 00:47:09;;;;;;;16.35;8.07;;;;;;;;;;2106931;28;20040;-44
2022/06/07 00:48:10;;;;;;;17.48;7.95;;;;;;;;;;2106752;28;20135;-47
2022/06/07 00:49:12;;;;;;;15.85;7.72;;;;;;;;;;2106709;28;20055;-45
2022/06/07 00:50:17;;;;;;;14.32;6.97;;;;;;;;;;2106742;28;20505;-45
2022/06/07 00:51:18;;;;;;;15.02;7.07;;;;;;;;;;2106630;28;20126;-45
2022/06/07 00:52:21;;;;;;;15.30;7.63;;;;;;;;;;2106675;28;20055;-44
2022/06/07 00:53:24;;;;;;;15.27;7.50;;;;;;;;;;2106737;28;20127;-44
2022/06/07 00:54:27;;;;;;;15.00;7.40;;;;;;;;;;2106825;28;20151;-44
2022/06/07 00:55:28;;;;;;;13.63;7.57;;;;;;;;;;2106599;28;20173;-45
2022/06/07 00:56:29;;;;;;;17.10;8.80;;;;;;;;;;2106769;28;20562;-45
2022/06/07 00:57:31;;;;;;;19.27;8.93;;;;;;;;;;2106788;28;20044;-45
2022/06/07 00:58:35;;;;;;;16.75;8.43;;;;;;;;;;2106743;28;20123;-45
2022/06/07 00:59:37;;;;;;;20.52;11.32;;;;;;;;;;2106753;28;20131;-44
2022/06/07 01:00:38;;;;;;;21.40;11.15;;;;;;;;;;2106826;28;20123;-44
2022/06/07 01:01:39;;;;;;;21.02;9.88;;;;;;;;;;2106761;28;20131;-44
2022/06/07 01:02:41;;;;;;;23.27;10.53;;;;;;;;;;2106638;28;20036;-44
2022/06/07 01:03:41;;;;;;;;;;;;;;;;;;2107122;28;20745;-44
2022/06/07 01:04:43;;;;;;;22.25;10.55;;;;;;;;;;2106536;28;20327;-44
2022/06/07 01:05:44;;;;;;;19.90;9.90;;;;;;;;;;2106833;28;20123;-44
2022/06/07 01:10:45;;;;;;;14.43;8.88;;;;;;;;;;2106677;28;20040;-41
2022/06/07 01:11:46;;;;;;;19.50;9.70;;;;;;;;;;2099031;28;20056;-46
2022/06/07 01:12:47;;;;;;;19.40;9.00;;;;;;;;;;2098407;28;20501;-45
2022/06/07 01:13:48;;;;;;;16.95;8.45;;;;;;;;;;2098262;28;20123;-44
2022/06/07 01:14:50;;;;;;;19.20;9.63;;;;;;;;;;2099363;28;20489;-45
2022/06/07 01:15:55;;;;;;;15.90;8.65;;;;;;;;;;2106571;28;20127;-45
2022/06/07 01:16:56;;;;;;;15.82;8.38;;;;;;;;;;2106731;28;20123;-44
2022/06/07 01:17:58;;;;;;;14.70;8.35;;;;;;;;;;2106573;28;20093;-44
2022/06/07 01:18:59;;;;;;;;;;;;;;;;;;2107132;28;20072;-46
2022/06/07 01:20:00;;;;;;;17.00;8.57;;;;;;;;;;2106735;28;19920;-45
2022/06/07 01:21:09;;;;;;;15.47;7.77;;;;;;;;;;2106676;28;20135;-44
2022/06/07 01:22:10;;;;;;;16.33;8.05;;;;;;;;;;2106485;28;20325;-44
2022/06/07 01:23:11;;;;;;;17.97;7.87;;;;;;;;;;2106795;28;20052;-44
2022/06/07 01:24:13;;;;;;;11.68;6.90;;;;;;;;;;2106556;28;20048;-44
2022/06/07 01:25:14;;;;;;;13.35;7.80;;;;;;;;;;2106609;28;20123;-44
2022/06/07 01:26:15;;;;;;;15.13;6.95;;;;;;;;;;2106460;28;20592;-44
2022/06/07 01:27:16;;;;;;;19.83;8.97;;;;;;;;;;2106548;28;20047;-45
2022/06/07 01:28:17;;;;;;;18.10;9.27;;;;;;;;;;2106594;28;20050;-45
2022/06/07 01:29:19;;;;;;;15.68;8.38;;;;;;;;;;2106517;28;20130;-44
2022/06/07 01:30:21;;;;;;;15.70;9.13;;;;;;;;;;2106786;28;20073;-46
2022/06/07 01:31:22;;;;;;;14.90;7.85;;;;;;;;;;2106363;28;20050;-45
2022/06/07 01:32:24;;;;;;;15.10;7.53;;;;;;;;;;2106622;28;20074;-44
2022/06/07 01:33:26;;;;;;;11.88;8.15;;;;;;;;;;2106532;28;20101;-41
2022/06/07 01:34:27;;;;;;;14.53;7.93;;;;;;;;;;2106566;28;20047;-42
2022/06/07 01:35:28;;;;;;;16.70;8.00;;;;;;;;;;2106728;28;20082;-42
2022/06/07 01:36:31;;;;;;;11.80;7.63;;;;;;;;;;2106500;28;20130;-42
2022/06/07 01:37:32;;;;;;;14.98;7.65;;;;;;;;;;2106513;28;20412;-42
2022/06/07 01:38:33;;;;;;;17.50;8.13;;;;;;;;;;2106403;28;20050;-42
2022/06/07 01:42:14;;;;;;;15.00;8.25;;;;;;;;;;2106258;28;20044;-42
2022/06/07 01:43:15;;;;;;;16.00;8.98;;;;;;;;;;2106373;28;20449;-42
2022/06/07 01:44:16;;;;;;;14.15;7.97;;;;;;;;;;2106410;28;20044;-42
2022/06/07 01:45:18;;;;;;;17.77;8.77;;;;;;;;;;2106653;28;20076;-42
2022/06/07 01:46:19;;;;;;;16.98;9.23;;;;;;;;;;2106328;28;20143;-41
2022/06/07 01:47:23;;;;;;;17.85;7.60;;;;;;;;;;2106377;28;20040;-42
2022/06/07 01:48:24;;;;;;;15.75;8.50;;;;;;;;;;2106342;28;20481;-42
2022/06/07 01:49:25;;;;;;;15.07;7.50;;;;;;;;;;2106585;28;20048;-44
2022/06/07 01:50:26;;;;;;;14.77;7.43;;;;;;;;;;2106475;28;20058;-44
2022/06/07 01:51:27;;;;;;;13.93;7.83;;;;;;;;;;2106499;28;20155;-45
2022/06/07 01:52:30;;;;;;;12.65;7.78;;;;;;;;;;2106478;28;20136;-45
2022/06/07 01:53:31;;;;;;;16.85;7.03;;;;;;;;;;2106259;28;20048;-45
2022/06/07 01:54:32;;;;;;;13.85;7.72;;;;;;;;;;2106483;28;20048;-45
2022/06/07 01:55:34;;;;;;;14.25;7.05;;;;;;;;;;2106264;28;20134;-45
2022/06/07 01:56:35;;;;;;;15.15;7.75;;;;;;;;;;2106260;28;20142;-45
2022/06/07 01:57:36;;;;;;;14.98;7.63;;;;;;;;;;2106446;28;20055;-46
2022/06/07 01:58:38;;;;;;;14.27;7.43;;;;;;;;;;2106416;28;20123;-45
2022/06/07 01:59:40;;;;;;;11.65;7.25;;;;;;;;;;2106401;28;20123;-45
2022/06/07 02:00:41;;;;;;;13.60;7.30;;;;;;;;;;2106260;28;20123;-45
2022/06/07 02:01:42;;;;;;;11.70;6.63;;;;;;;;;;2106164;28;20078;-46
2022/06/07 02:02:43;;;;;;;12.63;6.50;;;;;;;;;;2106400;28;20079;-45
2022/06/07 02:03:44;;;;;;;13.25;6.90;;;;;;;;;;2106326;28;20043;-46
2022/06/07 02:04:46;;;;;;;14.57;7.28;;;;;;;;;;2106286;28;20052;-46
2022/06/07 02:05:53;;;;;;;10.82;6.50;;;;;;;;;;2106146;28;20123;-45
2022/06/07 02:06:54;;;;;;;13.25;6.43;;;;;;;;;;2106272;28;20131;-46
2022/06/07 02:07:56;;;;;;;12.70;6.57;;;;;;;;;;2106189;28;20052;-47
2022/06/07 02:08:57;;;;;;;11.43;6.55;;;;;;;;;;2106535;28;20104;-43
2022/06/07 02:09:58;;;;;;;13.82;6.55;;;;;;;;;;2106262;28;20078;-43
2022/06/07 02:11:06;;;;;;;11.93;6.57;;;;;;;;;;2105628;28;20066;-46
2022/06/07 02:12:07;;;;;;;11.93;7.05;;;;;;;;;;2097811;28;20563;-45
2022/06/07 02:13:08;;;;;;;13.18;6.47;;;;;;;;;;2098196;28;20095;-42
2022/06/07 02:14:10;;;;;;;12.43;6.78;;;;;;;;;;2097813;28;20048;-43
2022/06/07 02:15:11;;;;;;;12.88;6.50;;;;;;;;;;2097938;28;20127;-43
2022/06/07 02:16:12;;;;;;;10.45;6.28;;;;;;;;;;2097863;28;20133;-42
2022/06/07 02:17:14;;;;;;;13.43;7.10;;;;;;;;;;2097917;28;20491;-43
2022/06/07 02:18:16;;;;;;;14.30;6.50;;;;;;;;;;2097918;28;20066;-43
2022/06/07 02:19:17;;;;;;;13.68;7.55;;;;;;;;;;2097804;28;20405;-43
2022/06/07 02:20:19;;;;;;;13.98;7.03;;;;;;;;;;2098071;28;20451;-46
2022/06/07 02:21:21;;;;;;;14.88;7.30;;;;;;;;;;2097726;28;20051;-46
2022/06/07 02:22:22;;;;;;;12.05;7.18;;;;;;;;;;2098188;28;20131;-46
2022/06/07 02:23:24;;;;;;;15.60;7.90;;;;;;;;;;2097803;28;20079;-46
2022/06/07 02:24:26;;;;;;;13.45;7.25;;;;;;;;;;2098077;28;20127;-44
2022/06/07 02:25:27;;;;;;;;;;;;;;;;;;2098308;28;20127;-43
2022/06/07 02:26:30;;;;;;;11.88;6.30;;;;;;;;;;2097628;28;19967;-43
2022/06/07 02:27:30;;;;;;;11.93;6.57;;;;;;;;;;2097782;28;20067;-43
2022/06/07 02:28:34;;;;;;;13.50;6.57;;;;;;;;;;2097920;28;20052;-43
2022/06/07 02:29:36;;;;;;;12.57;6.65;;;;;;;;;;2097709;28;20060;-43
2022/06/07 02:30:38;;;;;;;12.15;6.68;;;;;;;;;;2097771;28;20611;-44
2022/06/07 02:31:42;;;;;;;12.85;6.85;;;;;;;;;;2097817;28;20127;-43
2022/06/07 02:32:43;;;;;;;14.10;7.20;;;;;;;;;;2097653;28;20037;-44
2022/06/07 02:33:45;;;;;;;12.73;6.53;;;;;;;;;;2097889;28;20123;-43
2022/06/07 02:34:51;;;;;;;10.55;6.40;;;;;;;;;;2097693;28;20409;-43
2022/06/07 02:35:52;;;;;;;12.88;6.60;;;;;;;;;;2097564;28;20564;-43
2022/06/07 02:36:55;;;;;;;11.57;6.83;;;;;;;;;;2097739;28;20126;-43
2022/06/07 02:37:56;;;;;;;11.13;6.72;;;;;;;;;;2097682;28;20045;-44
2022/06/07 02:38:58;;;;;;;13.60;6.67;;;;;;;;;;2097861;28;20059;-46
2022/06/07 02:39:59;;;;;;;13.80;6.70;;;;;;;;;;2097651;28;20055;-46
2022/06/07 02:41:02;;;;;;;10.98;6.72;;;;;;;;;;2097881;28;20550;-46
2022/06/07 02:42:04;;;;;;;14.85;7.22;;;;;;;;;;2097569;28;20490;-46
2022/06/07 02:43:05;;;;;;;13.05;7.80;;;;;;;;;;2097912;28;20063;-43
2022/06/07 02:44:06;;;;;;;12.52;6.43;;;;;;;;;;2097570;28;20497;-43
2022/06/07 02:45:09;;;;;;;13.25;6.80;;;;;;;;;;2097685;28;20048;-43
2022/06/07 02:46:10;;;;;;;13.45;6.88;;;;;;;;;;2097567;28;20044;-43
2022/06/07 02:47:12;;;;;;;13.88;7.15;;;;;;;;;;2097798;28;20052;-43
2022/06/07 02:48:13;;;;;;;11.38;6.22;;;;;;;;;;2097581;28;20072;-43
2022/06/07 02:49:14;;;;;;;14.67;6.87;;;;;;;;;;2097747;28;20052;-43
2022/06/07 02:50:15;;;;;;;15.93;7.03;;;;;;;;;;2097812;28;20446;-43
2022/06/07 02:51:17;;;;;;;13.15;7.35;;;;;;;;;;2097906;28;20136;-46
2022/06/07 02:52:18;;;;;;;11.95;7.03;;;;;;;;;;2097910;28;20074;-43
2022/06/07 02:53:19;;;;;;;11.65;7.00;;;;;;;;;;2097840;28;20052;-46
2022/06/07 02:54:21;;;;;;;13.57;7.22;;;;;;;;;;2097553;28;20536;-46
2022/06/07 02:55:22;;;;;;;14.32;6.43;;;;;;;;;;2097837;28;20500;-43
2022/06/07 02:56:23;;;;;;;16.02;7.43;;;;;;;;;;2097737;28;20051;-43
2022/06/07 02:57:25;;;;;;;14.63;6.90;;;;;;;;;;2097556;28;20401;-43
2022/06/07 02:58:27;;;;;;;14.35;7.35;;;;;;;;;;2097649;28;20281;-43
2022/06/07 02:59:28;;;;;;;13.77;6.72;;;;;;;;;;2097990;28;20128;-43
2022/06/07 03:00:29;;;;;;;11.20;6.20;;;;;;;;;;2097666;28;20136;-43
2022/06/07 03:01:30;;;;;;;12.63;7.10;;;;;;;;;;2097502;28;20241;-43
2022/06/07 03:02:31;;;;;;;15.15;7.15;;;;;;;;;;2097660;28;20375;-43
2022/06/07 03:03:33;;;;;;;10.45;6.57;;;;;;;;;;2097611;28;20044;-43
2022/06/07 03:04:34;;;;;;;13.40;7.60;;;;;;;;;;2097473;28;20473;-43
2022/06/07 03:05:35;;;;;;;12.13;7.30;;;;;;;;;;2097396;28;20123;-43
2022/06/07 03:06:36;;;;;;;10.37;7.00;;;;;;;;;;2097707;28;20044;-43
2022/06/07 03:07:37;;;;;;;12.93;6.85;;;;;;;;;;2101094;28;20098;-43
2022/06/07 03:08:38;;;;;;;10.20;6.50;;;;;;;;;;2105752;28;20067;-43
2022/06/07 03:09:40;;;;;;;11.45;7.47;;;;;;;;;;2106065;28;20117;-43
2022/06/07 03:10:41;;;;;;;;;;;;;;;;;;2106503;28;20555;-43
2022/06/07 03:11:42;;;;;;;14.07;7.40;;;;;;;;;;2098542;28;20148;-43
2022/06/07 03:12:44;;;;;;;11.40;7.27;;;;;;;;;;2097562;28;20072;-43
2022/06/07 03:13:46;;;;;;;16.13;7.05;;;;;;;;;;2097865;28;20506;-43
2022/06/07 03:14:48;;;;;;;15.27;7.60;;;;;;;;;;2097529;28;20576;-47
2022/06/07 03:15:49;;;;;;;16.70;7.27;;;;;;;;;;2097588;28;20044;-46
2022/06/07 03:16:50;;;;;;;16.02;7.63;;;;;;;;;;2097524;28;20123;-46
2022/06/07 03:17:51;;;;;;;14.63;7.20;;;;;;;;;;2097480;28;20079;-46
2022/06/07 03:18:52;;;;;;;13.30;7.63;;;;;;;;;;2097452;28;20401;-46
2022/06/07 03:19:54;;;;;;;15.80;8.13;;;;;;;;;;2097459;28;20049;-46
2022/06/07 03:20:55;;;;;;;17.00;8.35;;;;;;;;;;2097404;28;20365;-47
2022/06/07 03:21:56;;;;;;;14.03;7.53;;;;;;;;;;2097451;28;20051;-46
2022/06/07 03:22:57;;;;;;;12.45;7.25;;;;;;;;;;2097434;28;20554;-45
2022/06/07 03:23:58;;;;;;;13.97;7.47;;;;;;;;;;2097585;28;20127;-46
2022/06/07 03:25:05;;;;;;;13.57;7.90;;;;;;;;;;2097512;28;20045;-46
2022/06/07 03:26:07;;;;;;;18.85;8.20;;;;;;;;;;2097356;28;20197;-46
2022/06/07 03:27:08;;;;;;;14.65;7.78;;;;;;;;;;2097402;28;20507;-46
2022/06/07 03:28:10;;;;;;;15.33;7.87;;;;;;;;;;2097514;28;20079;-47
2022/06/07 03:29:11;;;;;;;11.52;7.40;;;;;;;;;;2097388;28;20642;-45
2022/06/07 03:30:12;;;;;;;12.55;6.97;;;;;;;;;;2097459;28;20055;-46
2022/06/07 03:31:15;;;;;;;15.98;7.60;;;;;;;;;;2097274;28;20124;-46
2022/06/07 03:32:16;;;;;;;14.70;7.68;;;;;;;;;;2097571;28;20048;-45
2022/06/07 03:33:17;;;;;;;12.32;7.03;;;;;;;;;;2097240;28;20052;-47
2022/06/07 03:34:19;;;;;;;10.97;7.20;;;;;;;;;;2097693;28;20205;-43
2022/06/07 03:35:20;;;;;;;13.38;7.00;;;;;;;;;;2097414;28;20414;-43
2022/06/07 03:36:22;;;;;;;14.30;7.13;;;;;;;;;;2097381;28;20628;-43
2022/06/07 03:37:23;;;;;;;12.82;6.95;;;;;;;;;;2097291;28;20478;-43
2022/06/07 03:38:24;;;;;;;11.77;6.67;;;;;;;;;;2097390;28;20051;-43
2022/06/07 03:39:25;;;;;;;12.30;7.55;;;;;;;;;;2097332;28;20059;-43
2022/06/07 03:40:45;;;;;;;12.50;7.30;;;;;;;;;;2097343;28;20480;-44
2022/06/07 03:41:46;;;;;;;10.15;6.75;;;;;;;;;;2097495;28;20492;-46
2022/06/07 03:42:47;;;;;;;14.25;7.40;;;;;;;;;;2097373;28;20170;-47
2022/06/07 03:43:48;;;;;;;12.75;7.80;;;;;;;;;;2097626;28;20041;-44
2022/06/07 03:44:50;;;;;;;;;;;;;;;;;;2097785;28;20059;-43
2022/06/07 03:45:51;;;;;;;11.52;6.43;;;;;;;;;;2097251;28;19956;-43
2022/06/07 03:46:53;;;;;;;10.73;6.60;;;;;;;;;;2097311;28;20036;-43
2022/06/07 03:47:54;;;;;;;9.05;5.72;;;;;;;;;;2097461;28;20052;-43
2022/06/07 03:48:56;;;;;;;12.97;6.87;;;;;;;;;;2097614;28;20482;-43
2022/06/07 03:49:57;;;;;;;11.65;6.30;;;;;;;;;;2097411;28;20342;-43
2022/06/07 03:50:58;;;;;;;10.70;6.22;;;;;;;;;;2097059;28;20194;-43
2022/06/07 03:51:59;;;;;;;8.23;5.65;;;;;;;;;;2097322;28;20080;-43
2022/06/07 03:53:01;;;;;;;12.50;6.30;;;;;;;;;;2097450;28;20067;-47
2022/06/07 03:54:04;;;;;;;10.43;6.22;;;;;;;;;;2097440;28;20630;-43
2022/06/07 03:55:06;;;;;;;9.23;5.38;;;;;;;;;;2097274;28;20182;-43
2022/06/07 03:56:09;;;;;;;8.02;4.70;;;;;;;;;;2097308;28;20044;-44
2022/06/07 03:57:11;;;;;;;8.38;5.00;;;;;;;;;;2097778;28;20044;-47
2022/06/07 03:58:12;;;;;;;;;;;;;;;;;;2097738;28;20371;-43
2022/06/07 03:59:13;;;;;;;5.82;3.78;;;;;;;;;;2097202;28;20361;-44
2022/06/07 04:00:14;;;;;;;7.23;4.47;;;;;;;;;;2097245;28;20045;-43
2022/06/07 04:01:17;;;;;;;7.63;4.15;;;;;;;;;;2097082;28;20091;-43
2022/06/07 04:02:18;;;;;;;5.75;3.67;;;;;;;;;;2097677;28;20048;-47
2022/06/07 04:03:19;;;;;;;7.28;3.45;;;;;;;;;;2097191;28;20052;-46
2022/06/07 04:04:21;;;;;;;4.03;3.03;;;;;;;;;;2104650;28;20093;-47
2022/06/07 04:05:22;;;;;;;5.85;3.22;;;;;;;;;;2107053;28;20050;-44
2022/06/07 04:06:24;;;;;;;5.37;3.10;;;;;;;;;;2107087;28;20044;-43
2022/06/07 04:08:53;;;;;;;6.20;3.08;;;;;;;;;;2064860;28;20088;-43
2022/06/07 04:09:55;;;;;;;6.28;2.78;;;;;;;;;;2090591;28;20138;-43
2022/06/07 04:10:57;;;;;;;3.60;2.45;;;;;;;;;;2106320;28;20127;-43
2022/06/07 04:11:59;;;;;;;5.07;2.17;;;;;;;;;;2098797;28;20045;-43
2022/06/07 04:13:00;;;;;;;4.88;2.40;;;;;;;;;;2098938;28;20143;-43
2022/06/07 04:14:02;;;;;;;4.00;1.90;;;;;;;;;;2098639;28;20132;-43
2022/06/07 04:15:03;;;;;;;5.90;3.08;;;;;;;;;;2098788;28;20047;-45
2022/06/07 04:16:05;;;;;;;4.68;2.95;;;;;;;;;;2098749;28;20072;-43
2022/06/07 04:17:07;;;;;;;3.60;2.30;;;;;;;;;;2098651;28;20175;-44
2022/06/07 04:18:12;;;;;;;2.90;1.88;;;;;;;;;;2098653;28;20044;-46
2022/06/07 04:19:13;;;;;;;4.60;2.67;;;;;;;;;;2098840;28;20047;-46
2022/06/07 04:20:14;;;;;;;4.82;2.03;;;;;;;;;;2098696;28;20056;-47
2022/06/07 04:21:16;;;;;;;3.50;2.30;;;;;;;;;;2098614;28;20139;-44
2022/06/07 04:22:18;;;;;;;3.20;2.17;;;;;;;;;;2098630;28;20131;-44
2022/06/07 04:23:21;;;;;;;2.38;2.03;;;;;;;;;;2098634;28;20135;-44
2022/06/07 04:24:22;;;;;;;4.70;1.70;;;;;;;;;;2098635;28;20633;-44
2022/06/07 04:25:23;;;;;;;2.40;2.00;;;;;;;;;;2098956;28;20041;-46
2022/06/07 04:26:26;;;;;;;8.40;2.28;;;;;;;;;;2098669;28;20075;-47
2022/06/07 04:27:27;;;;;;;2.53;1.80;;;;;;;;;;2098498;28;20485;-46
2022/06/07 04:28:28;;;;;;;2.85;1.73;;;;;;;;;;2098924;28;20135;-44
2022/06/07 04:29:29;;;;;;;2.15;1.63;;;;;;;;;;2098542;28;20127;-43
2022/06/07 04:30:31;;;;;;;5.03;2.00;;;;;;;;;;2098878;28;20132;-47
2022/06/07 04:31:32;;;;;;;;;;;;;;;;;;2098875;28;20044;-47
2022/06/07 04:32:33;;;;;;;4.18;1.77;;;;;;;;;;2098695;28;20288;-47
2022/06/07 04:33:35;;;;;;;2.28;1.58;;;;;;;;;;2098578;28;20132;-47
2022/06/07 04:34:36;;;;;;;2.55;1.77;;;;;;;;;;2098739;28;20596;-43
2022/06/07 04:35:37;;;;;;;4.33;1.60;;;;;;;;;;2098723;28;20047;-43
2022/06/07 04:36:38;;;;;;;2.17;1.58;;;;;;;;;;2098535;28;20364;-43
2022/06/07 04:37:39;;;;;;;4.93;2.10;;;;;;;;;;2098558;28;20170;-43
2022/06/07 04:38:40;;;;;;;2.28;1.45;;;;;;;;;;2098720;28;20120;-44
2022/06/07 04:39:42;;;;;;;3.10;1.77;;;;;;;;;;2098520;28;20040;-44
2022/06/07 04:40:43;;;;;;;3.47;1.58;;;;;;;;;;2098448;28;20124;-43
2022/06/07 04:41:44;;;;;;;2.15;1.60;;;;;;;;;;2098435;28;20048;-43
2022/06/07 04:42:46;;;;;;;2.17;1.52;;;;;;;;;;2098554;28;20127;-43
2022/06/07 04:43:48;;;;;;;2.60;1.60;;;;;;;;;;2098501;28;20097;-45
2022/06/07 04:44:51;;;;;;;2.90;1.83;;;;;;;;;;2098472;28;20049;-44
2022/06/07 04:46:01;;;;;;;2.13;1.38;;;;;;;;;;2098388;28;20174;-43
2022/06/07 04:47:03;;;;;;;3.42;1.60;;;;;;;;;;2098417;28;20418;-44
2022/06/07 04:48:05;;;;;;;3.60;1.50;;;;;;;;;;2098969;28;20101;-43
2022/06/07 04:49:06;;;;;;;6.55;1.70;;;;;;;;;;2098543;28;20112;-46
2022/06/07 04:50:08;;;;;;;5.40;1.83;;;;;;;;;;2098460;28;20072;-46
2022/06/07 04:51:10;;;;;;;2.78;1.85;;;;;;;;;;2098397;28;20131;-47
2022/06/07 04:52:19;;;;;;;1.85;1.30;;;;;;;;;;2098400;28;20048;-46
2022/06/07 04:53:23;;;;;;;2.63;2.08;;;;;;;;;;2098608;28;20305;-47
2022/06/07 04:54:24;;;;;;;2.42;1.52;;;;;;;;;;2098307;28;20117;-46
2022/06/07 04:55:26;;;;;;;2.40;1.40;;;;;;;;;;2098570;28;20056;-44
2022/06/07 04:56:28;;;;;;;2.40;1.35;;;;;;;;;;2098306;28;20277;-43
2022/06/07 04:57:29;;;;;;;3.28;2.00;;;;;;;;;;2098493;28;20064;-44
2022/06/07 04:58:31;;;;;;;3.17;1.42;;;;;;;;;;2098398;28;20145;-43
2022/06/07 04:59:31;;;;;;;;;;;;;;;;;;2098844;28;20565;-44
2022/06/07 05:00:32;;;;;;;2.13;1.45;;;;;;;;;;2105490;28;20009;-44
2022/06/07 05:01:34;;;;;;;2.08;1.13;;;;;;;;;;2106715;28;20048;-44
2022/06/07 05:02:35;;;;;;;;;;;;;;;;;;2107424;28;20230;-46
2022/06/07 05:03:36;;;;;;;;;;;;;;;;;;2107472;28;19924;-47
2022/06/07 05:04:37;;;;;;;;;;;;;;;;;;2107108;28;19955;-47
2022/06/07 05:05:38;;;;;;;;;;;;;;;;;;2107122;28;20338;-46
2022/06/07 05:06:39;;;;;;;;;;;;;;;;;;2107175;28;19964;-49
2022/06/07 05:07:44;;;;;;;;;;;;;;;;;;2107011;28;19946;-47
2022/06/07 05:08:45;;;;;;;;;;;;;;;;;;2107269;28;20278;-47
2022/06/07 05:09:46;;;;;;;;;;;;;;;;;;2107334;28;19959;-45
2022/06/07 05:10:47;;;;;;;;;;;;;;;;;;2107043;28;19920;-45
2022/06/07 05:11:48;;;;;;;;;;;;;;;;;;2099213;28;19920;-47
2022/06/07 05:12:49;;;;;;;;;;;;;;;;;;2099074;28;19952;-43
2022/06/07 05:13:49;;;;;;;;;;;;;;;;;;2098844;28;19978;-46
2022/06/07 05:14:51;;;;;;;;;;;;;;;;;;2099140;28;19920;-46
2022/06/07 05:15:51;;;;;;;;;;;;;;;;;;2098445;28;19999;-46
2022/06/07 05:16:52;;;;;;;;;;;;;;;;;;2097602;28;20019;-46
2022/06/07 05:17:53;;;;;;;;;;;;;;;;;;2098680;28;19925;-46
2022/06/07 05:18:54;;;;;;;;;;;;;;;;;;2098619;28;19920;-46
2022/06/07 05:19:55;;;;;;;;;;;;;;;;;;2098729;28;19943;-46
2022/06/07 05:20:56;;;;;;;;;;;;;;;;;;2098546;28;19951;-45
2022/06/07 05:21:57;;;;;;;;;;;;;;;;;;2098918;28;19924;-43
2022/06/07 05:22:58;;;;;;;;;;;;;;;;;;2098828;28;20010;-44
2022/06/07 05:23:59;;;;;;;;;;;;;;;;;;2098829;28;19952;-44
2022/06/07 05:25:00;;;;;;;;;;;;;;;;;;2098653;28;19971;-43
2022/06/07 05:26:01;;;;;;;;;;;;;;;;;;2098521;28;20065;-43
2022/06/07 05:27:02;;;;;;;;;;;;;;;;;;2098719;28;20011;-44
2022/06/07 05:28:03;;;;;;;;;;;;;;;;;;2098810;28;19920;-43
2022/06/07 05:29:04;;;;;;;;;;;;;;;;;;2098788;28;20414;-44
2022/06/07 05:30:09;;;;;;;;;;;;;;;;;;2098622;28;19920;-43
2022/06/07 05:31:10;;;;;;;;;;;;;;;;;;2098755;28;19974;-43
2022/06/07 05:32:11;;;;;;;;;;;;;;;;;;2098790;28;19920;-46
2022/06/07 05:33:12;;;;;;;;;;;;;;;;;;2098692;28;19920;-46
2022/06/07 05:34:12;;;;;;;;;;;;;;;;;;2098885;28;20155;-46
2022/06/07 05:35:13;;;;;;;;;;;;;;;;;;2098638;28;20369;-46
2022/06/07 05:36:15;;;;;;;;;;;;;;;;;;2098465;28;19967;-47
2022/06/07 05:37:19;;;;;;;;;;;;;;;;;;2098648;28;19920;-46
2022/06/07 05:38:21;;;;;;;;;;;;;;;;;;2098667;28;20318;-46
2022/06/07 05:39:22;;;;;;;;;;;;;;;;;;2098420;28;20011;-45
2022/06/07 05:40:23;;;;;;;;;;;;;;;;;;2098656;28;19921;-45
2022/06/07 05:41:25;;;;;;;;;;;;;;;;;;2098482;28;19921;-46
2022/06/07 05:42:25;;;;;;;;;;;;;;;;;;2098611;28;19920;-45
2022/06/07 05:43:26;;;;;;;;;;;;;;;;;;2098546;28;20549;-45
2022/06/07 05:44:27;;;;;;;;;;;;;;;;;;2098535;28;19927;-45
2022/06/07 05:45:28;;;;;;;;;;;;;;;;;;2098357;28;19921;-46
2022/06/07 05:46:29;;;;;;;;;;;;;;;;;;2098943;28;19974;-46
2022/06/07 05:47:30;;;;;;;;;;;;;;;;;;2099224;28;19920;-45
2022/06/07 05:48:33;;;;;;;;;;;;;;;;;;2098455;28;20472;-46
2022/06/07 05:49:34;;;;;;;;;;;;;;;;;;2098802;28;20019;-46
2022/06/07 05:50:35;;;;;;;;;;;;;;;;;;2098412;28;20031;-45
2022/06/07 05:51:36;;;;;;;;;;;;;;;;;;2098498;28;19946;-46
2022/06/07 05:52:40;;;;;;;;;;;;;;;;;;2098564;28;19924;-46
2022/06/07 05:53:41;;;;;;;;;;;;;;;;;;2098495;28;19965;-46
2022/06/07 05:54:42;;;;;;;;;;;;;;;;;;2098704;28;19924;-46
2022/06/07 05:55:43;;;;;;;;;;;;;;;;;;2099046;28;20001;-47
2022/06/07 05:56:44;;;;;;;;;;;;;;;;;;2104961;28;19920;-45
2022/06/07 05:57:49;;;;;;;;;;;;;;;;;;2106791;28;19924;-45
2022/06/07 05:58:49;;;;;;;;;;;;;;;;;;2107033;28;19978;-45
2022/06/07 05:59:52;;;;;;;;;;;;;;;;;;2107033;28;19920;-45
2022/06/07 06:00:52;;;;;;;;;;;;;;;;;;2106849;28;20012;-45
2022/06/07 06:01:53;;;;;;;;;;;;;;;;;;2106992;28;19927;-43
2022/06/07 06:02:54;;;;;;;;;;;;;;;;;;2106920;28;19920;-43
2022/06/07 06:03:55;;;;;;;;;;;;;;;;;;2107199;28;19958;-46
2022/06/07 06:05:00;;;;;;;;;;;;;;;;;;2107290;28;19920;-44
2022/06/07 06:06:01;;;;;;;;;;;;;;;;;;2107027;28;20389;-44
2022/06/07 06:07:03;;;;;;;;;;;;;;;;;;2106709;28;20157;-46
2022/06/07 06:10:43;;;;;;;;;;;;;;;;;;2106705;28;20387;-45
2022/06/07 06:11:44;;;;;;;;;;;;;;;;;;2099356;28;19966;-45
2022/06/07 06:12:45;;;;;;;;;;;;;;;;;;2098321;28;19920;-45
2022/06/07 06:13:45;;;;;;;;;;;;;;;;;;2098625;28;19995;-43
2022/06/07 06:14:48;;;;;;;;;;;;;;;;;;2098288;28;19920;-44
2022/06/07 06:15:48;;;;;;;;;;;;;;;;;;2098311;28;19955;-44
2022/06/07 06:16:50;;;;;;;;;;;;;;;;;;2098361;28;20392;-43
2022/06/07 06:17:51;;;;;;;;;;;;;;;;;;2098548;28;19946;-46
2022/06/07 06:18:52;;;;;;;;;;;;;;;;;;2098619;28;20285;-43
2022/06/07 06:19:53;;;;;;;;;;;;;;;;;;2098321;28;20007;-44
2022/06/07 06:20:53;;;;;;;;;;;;;;;;;;2098549;28;19924;-46
2022/06/07 06:21:54;;;;;;;;;;;;;;;;;;2098494;28;20266;-45
2022/06/07 06:22:55;;;;;;;;;;;;;;;;;;2098410;28;19920;-46
2022/06/07 06:23:56;;;;;;;;;;;;;;;;;;2098358;28;20349;-46
2022/06/07 06:24:57;;;;;;;;;;;;;;;;;;2098454;28;19924;-46
2022/06/07 06:25:58;;;;;;;;;;;;;;;;;;2098147;28;20003;-46
2022/06/07 06:26:59;;;;;;;;;;;;;;;;;;2098198;28;19979;-47
2022/06/07 06:28:00;;;;;;;;;;;;;;;;;;2098020;28;19947;-44
2022/06/07 06:29:01;;;;;;;;;;;;;;;;;;2098174;28;19924;-44